createdAt,value
2018-01-20T00:00:39.356Z,21.30
2018-01-20T00:03:06.825Z,15.77
2018-01-20T00:05:34.317Z,22.03
2018-01-20T00:08:01.780Z,23.73
2018-01-20T00:10:41.133Z,21.57
2018-01-20T00:13:08.618Z,19.30
2018-01-20T00:15:36.274Z,26.23
2018-01-20T00:18:03.737Z,28.10
2018-01-20T00:20:31.206Z,23.00
2018-01-20T00:23:00.341Z,22.43
2018-01-20T00:25:28.573Z,22.77
2018-01-20T00:27:56.075Z,23.83
2018-01-20T00:30:23.529Z,25.23
2018-01-20T00:32:51.012Z,22.90
2018-01-20T00:35:18.477Z,20.80
2018-01-20T00:37:46.050Z,24.63
2018-01-20T00:40:13.518Z,22.33
2018-01-20T00:42:41.006Z,46.47
2018-01-20T00:45:08.478Z,45.43
2018-01-20T00:47:36.034Z,48.90
2018-01-20T00:50:03.578Z,39.40
2018-01-20T00:52:31.038Z,31.13
2018-01-20T00:54:58.497Z,50.87
2018-01-20T00:57:26.001Z,52.97
2018-01-20T00:59:53.573Z,30.60
2018-01-20T01:02:21.048Z,32.43
2018-01-20T01:04:48.518Z,39.07
2018-01-20T01:07:15.983Z,45.47
2018-01-20T01:09:43.553Z,39.65
2018-01-20T01:12:11.010Z,28.73
2018-01-20T01:14:38.497Z,31.67
2018-01-20T01:17:05.962Z,32.40
2018-01-20T01:19:33.422Z,35.07
2018-01-20T01:22:00.881Z,30.77
2018-01-20T01:24:29.106Z,27.63
2018-01-20T01:26:56.846Z,28.97
2018-01-20T01:29:24.303Z,30.07
2018-01-20T01:31:51.766Z,24.20
2018-01-20T01:34:19.237Z,22.17
2018-01-20T01:36:46.737Z,20.10
2018-01-20T01:39:14.209Z,24.33
2018-01-20T01:41:41.677Z,20.00
2018-01-20T01:44:09.151Z,19.03
2018-01-20T01:46:36.619Z,18.17
2018-01-20T01:49:04.075Z,15.07
2018-01-20T01:51:31.672Z,14.10
2018-01-20T01:53:59.229Z,15.83
2018-01-20T01:56:26.682Z,12.33
2018-01-20T01:58:54.166Z,13.60
2018-01-20T02:01:21.621Z,13.60
2018-01-20T02:03:49.146Z,11.20
2018-01-20T02:06:17.377Z,12.13
2018-01-20T02:08:44.858Z,13.20
2018-01-20T02:11:12.383Z,10.27
2018-01-20T02:13:40.616Z,7.93
2018-01-20T02:16:08.105Z,8.77
2018-01-20T02:18:35.554Z,8.47
2018-01-20T02:21:03.138Z,10.63
2018-01-20T02:23:30.717Z,7.50
2018-01-20T02:25:58.166Z,8.47
2018-01-20T02:28:25.729Z,8.30
2018-01-20T02:30:53.221Z,10.50
2018-01-20T02:33:20.791Z,8.17
2018-01-20T02:35:48.347Z,7.50
2018-01-20T02:38:15.817Z,7.90
2018-01-20T02:40:43.270Z,8.03
2018-01-20T02:43:10.756Z,8.30
2018-01-20T02:45:38.202Z,10.37
2018-01-20T02:48:05.693Z,6.90
2018-01-20T02:50:33.171Z,7.23
2018-01-20T02:53:00.617Z,6.57
2018-01-20T02:55:28.098Z,6.77
2018-01-20T02:57:55.619Z,6.40
2018-01-20T03:00:23.836Z,6.17
2018-01-20T03:02:51.302Z,9.83
2018-01-20T03:05:18.789Z,6.60
2018-01-20T03:07:46.258Z,11.37
2018-01-20T03:10:13.729Z,7.10
2018-01-20T03:12:41.202Z,8.03
2018-01-20T03:15:08.670Z,8.17
2018-01-20T03:17:36.114Z,7.53
2018-01-20T03:20:03.567Z,9.27
2018-01-20T03:22:31.069Z,8.07
2018-01-20T03:24:58.541Z,11.87
2018-01-20T03:27:25.989Z,8.17
2018-01-20T03:29:53.481Z,13.70
2018-01-20T03:32:20.945Z,7.23
2018-01-20T03:34:48.418Z,10.37
2018-01-20T03:37:15.891Z,7.50
2018-01-20T03:39:43.387Z,11.63
2018-01-20T03:42:11.645Z,9.10
2018-01-20T03:44:39.101Z,10.23
2018-01-20T03:47:06.601Z,9.10
2018-01-20T03:49:34.057Z,10.80
2018-01-20T03:52:01.504Z,7.60
2018-01-20T03:54:28.954Z,9.17
2018-01-20T03:56:56.459Z,11.57
2018-01-20T03:59:23.913Z,9.33
2018-01-20T04:01:51.399Z,12.03
2018-01-20T04:04:18.863Z,10.33
2018-01-20T04:06:46.342Z,8.07
2018-01-20T04:09:14.113Z,12.70
2018-01-20T04:11:41.571Z,12.50
2018-01-20T04:14:09.050Z,10.37
2018-01-20T04:16:36.498Z,8.40
2018-01-20T04:19:03.985Z,7.60
2018-01-20T04:21:31.553Z,8.30
2018-01-20T04:23:59.022Z,9.67
2018-01-20T04:26:26.480Z,8.30
2018-01-20T04:28:53.956Z,8.73
2018-01-20T04:31:21.418Z,6.60
2018-01-20T04:33:48.897Z,7.37
2018-01-20T04:36:16.344Z,9.60
2018-01-20T04:38:43.792Z,7.60
2018-01-20T04:41:11.313Z,5.43
2018-01-20T04:43:38.764Z,9.10
2018-01-20T04:46:06.219Z,5.80
2018-01-20T04:48:33.719Z,6.67
2018-01-20T04:51:01.290Z,6.10
2018-01-20T04:53:28.741Z,6.67
2018-01-20T04:55:56.202Z,7.40
2018-01-20T04:58:23.654Z,4.87
2018-01-20T05:00:51.114Z,7.33
2018-01-20T05:03:18.565Z,8.00
2018-01-20T05:05:46.790Z,6.13
2018-01-20T05:08:14.250Z,6.57
2018-01-20T05:10:41.757Z,5.30
2018-01-20T05:13:09.206Z,8.37
2018-01-20T05:15:36.689Z,5.47
2018-01-20T05:18:04.143Z,7.53
2018-01-20T05:20:31.645Z,6.33
2018-01-20T05:22:59.897Z,8.33
2018-01-20T05:25:27.362Z,5.50
2018-01-20T05:27:54.858Z,8.90
2018-01-20T05:30:22.325Z,6.73
2018-01-20T05:32:49.773Z,8.23
2018-01-20T05:35:17.317Z,10.20
2018-01-20T05:37:44.720Z,9.60
2018-01-20T05:40:12.194Z,7.70
2018-01-20T05:42:39.673Z,9.70
2018-01-20T05:45:07.137Z,9.00
2018-01-20T05:47:34.594Z,8.07
2018-01-20T05:50:02.041Z,10.90
2018-01-20T05:52:29.567Z,9.13
2018-01-20T05:54:57.030Z,11.30
2018-01-20T05:57:24.477Z,8.37
2018-01-20T05:59:51.947Z,7.27
2018-01-20T06:02:19.421Z,9.03
2018-01-20T06:04:46.874Z,9.03
2018-01-20T06:07:14.361Z,10.63
2018-01-20T06:09:41.821Z,11.93
2018-01-20T06:12:09.281Z,12.00
2018-01-20T06:14:36.896Z,8.27
2018-01-20T06:17:04.441Z,11.60
2018-01-20T06:19:31.900Z,8.27
2018-01-20T06:21:59.474Z,10.00
2018-01-20T06:24:26.928Z,10.43
2018-01-20T06:26:54.499Z,6.27
2018-01-20T06:29:21.949Z,5.97
2018-01-20T06:31:49.460Z,5.90
2018-01-20T06:34:16.925Z,5.67
2018-01-20T06:36:44.385Z,6.50
2018-01-20T06:39:11.846Z,5.63
2018-01-20T06:41:39.312Z,6.43
2018-01-20T06:44:06.762Z,7.17
2018-01-20T06:46:34.221Z,5.67
2018-01-20T06:49:01.670Z,5.83
2018-01-20T06:51:29.909Z,5.63
2018-01-20T06:53:57.399Z,5.20
2018-01-20T06:56:24.961Z,4.90
2018-01-20T06:58:52.441Z,7.03
2018-01-20T07:01:20.006Z,6.30
2018-01-20T07:03:47.457Z,7.47
2018-01-20T07:06:14.907Z,6.73
2018-01-20T07:08:42.410Z,5.40
2018-01-20T07:11:09.883Z,5.00
2018-01-20T07:13:37.348Z,5.33
2018-01-20T07:16:04.798Z,6.57
2018-01-20T07:18:32.264Z,5.20
2018-01-20T07:20:59.753Z,5.50
2018-01-20T07:23:27.201Z,5.63
2018-01-20T07:25:54.693Z,5.30
2018-01-20T07:28:22.448Z,4.43
2018-01-20T07:30:50.221Z,4.60
2018-01-20T07:33:17.868Z,6.90
2018-01-20T07:35:46.282Z,7.63
2018-01-20T07:38:14.138Z,6.13
2018-01-20T07:40:41.915Z,5.07
2018-01-20T07:43:09.389Z,6.07
2018-01-20T07:45:36.903Z,6.33
2018-01-20T07:48:04.357Z,6.80
2018-01-20T07:50:31.813Z,6.50
2018-01-20T07:52:59.264Z,5.23
2018-01-20T07:55:26.977Z,7.70
2018-01-20T07:57:54.497Z,6.83
2018-01-20T08:00:22.733Z,6.33
2018-01-20T08:02:50.190Z,5.47
2018-01-20T08:05:17.672Z,5.53
2018-01-20T08:07:45.122Z,9.07
2018-01-20T08:10:12.613Z,6.85
2018-01-20T08:12:40.089Z,5.60
2018-01-20T08:15:07.545Z,5.13
2018-01-20T08:17:35.000Z,4.37
2018-01-20T08:20:02.504Z,4.37
2018-01-20T08:22:29.955Z,4.00
2018-01-20T08:24:57.409Z,5.03
2018-01-20T08:27:24.888Z,4.23
2018-01-20T08:29:52.342Z,4.50
2018-01-20T08:32:19.833Z,3.50
2018-01-20T08:34:47.280Z,4.30
2018-01-20T08:37:14.735Z,4.70
2018-01-20T08:39:42.295Z,4.43
2018-01-20T08:42:10.902Z,5.43
2018-01-20T08:44:38.365Z,5.67
2018-01-20T08:47:05.870Z,4.33
2018-01-20T08:49:34.085Z,4.70
2018-01-20T08:52:01.737Z,4.73
2018-01-20T08:54:29.201Z,5.70
2018-01-20T08:56:56.672Z,4.33
2018-01-20T08:59:24.119Z,4.57
2018-01-20T09:01:51.580Z,2.73
2018-01-20T09:04:21.820Z,2.67
2018-01-20T09:06:49.277Z,2.60
2018-01-20T09:09:16.781Z,2.83
2018-01-20T09:11:44.261Z,3.17
2018-01-20T09:14:11.727Z,2.90
2018-01-20T09:16:39.191Z,2.80
2018-01-20T09:19:06.632Z,2.83
2018-01-20T09:21:34.138Z,2.80
2018-01-20T09:24:01.733Z,4.53
2018-01-20T09:26:29.554Z,3.60
2018-01-20T09:28:57.007Z,3.40
2018-01-20T09:31:24.461Z,3.27
2018-01-20T09:33:52.703Z,3.40
2018-01-20T09:36:20.149Z,3.07
2018-01-20T09:38:47.604Z,2.37
2018-01-20T09:41:15.115Z,3.07
2018-01-20T09:43:42.578Z,4.13
2018-01-20T09:46:10.035Z,4.70
2018-01-20T09:48:37.517Z,3.00
2018-01-20T09:51:05.306Z,3.70
2018-01-20T09:53:34.167Z,2.20
2018-01-20T09:56:01.670Z,3.13
2018-01-20T09:58:29.323Z,3.40
2018-01-20T10:00:56.806Z,3.13
2018-01-20T10:03:24.277Z,5.87
2018-01-20T10:05:51.757Z,7.37
2018-01-20T10:08:19.213Z,5.17
2018-01-20T10:10:46.692Z,8.97
2018-01-20T10:13:14.162Z,4.60
2018-01-20T10:15:41.630Z,5.97
2018-01-20T10:18:09.190Z,8.63
2018-01-20T10:20:36.774Z,4.90
2018-01-20T10:23:04.549Z,6.67
2018-01-20T10:25:31.997Z,2.83
2018-01-20T10:27:59.477Z,4.57
2018-01-20T10:30:27.119Z,5.90
2018-01-20T10:32:54.561Z,4.60
2018-01-20T10:35:22.801Z,5.50
2018-01-20T10:37:50.254Z,5.63
2018-01-20T10:40:17.909Z,5.10
2018-01-20T10:42:45.518Z,6.70
2018-01-20T10:45:14.502Z,7.03
2018-01-20T10:47:41.962Z,4.43
2018-01-20T10:50:09.418Z,5.63
2018-01-20T10:52:36.986Z,7.70
2018-01-20T10:55:04.509Z,5.60
2018-01-20T10:57:31.954Z,4.23
2018-01-20T10:59:59.417Z,4.13
2018-01-20T11:02:26.867Z,4.60
2018-01-20T11:04:54.537Z,5.43
2018-01-20T11:07:22.143Z,3.80
2018-01-20T11:09:49.725Z,3.83
2018-01-20T11:12:17.194Z,3.83
2018-01-20T11:14:44.662Z,4.50
2018-01-20T11:17:12.393Z,5.50
2018-01-20T11:19:40.827Z,6.27
2018-01-20T11:22:08.307Z,4.30
2018-01-20T11:24:35.773Z,4.33
2018-01-20T11:27:03.234Z,5.17
2018-01-20T11:29:30.872Z,3.53
2018-01-20T11:31:58.376Z,5.67
2018-01-20T11:34:25.835Z,6.43
2018-01-20T11:36:53.548Z,7.43
2018-01-20T11:39:21.762Z,6.03
2018-01-20T11:41:49.213Z,9.33
2018-01-20T11:44:17.470Z,8.13
2018-01-20T11:46:44.930Z,6.07
2018-01-20T11:49:12.377Z,7.17
2018-01-20T11:51:39.894Z,5.80
2018-01-20T11:54:07.297Z,7.43
2018-01-20T11:56:34.811Z,6.53
2018-01-20T11:59:02.256Z,6.63
2018-01-20T12:01:29.750Z,6.70
2018-01-20T12:03:57.205Z,5.43
2018-01-20T12:06:24.683Z,4.97
2018-01-20T12:08:52.133Z,7.27
2018-01-20T12:11:19.617Z,7.00
2018-01-20T12:13:47.074Z,9.23
2018-01-20T12:16:14.611Z,8.00
2018-01-20T12:18:42.024Z,8.90
2018-01-20T12:21:09.471Z,8.00
2018-01-20T12:23:36.921Z,12.60
2018-01-20T12:26:04.381Z,12.20
2018-01-20T12:28:32.594Z,13.20
2018-01-20T12:31:00.274Z,8.30
2018-01-20T12:33:27.737Z,10.13
2018-01-20T12:35:55.195Z,6.67
2018-01-20T12:38:22.648Z,8.27
2018-01-20T12:40:50.869Z,7.73
2018-01-20T12:43:18.330Z,7.03
2018-01-20T12:45:45.784Z,5.67
2018-01-20T12:48:13.245Z,5.23
2018-01-20T12:50:40.697Z,6.77
2018-01-20T12:53:08.917Z,6.93
2018-01-20T12:55:36.369Z,7.13
2018-01-20T12:58:03.892Z,7.20
2018-01-20T13:00:31.354Z,7.30
2018-01-20T13:02:58.807Z,7.77
2018-01-20T13:05:26.291Z,9.57
2018-01-20T13:07:53.858Z,8.87
2018-01-20T13:10:21.330Z,7.13
2018-01-20T13:12:48.782Z,6.37
2018-01-20T13:15:16.237Z,9.80
2018-01-20T13:17:43.741Z,4.63
2018-01-20T13:20:11.198Z,7.80
2018-01-20T13:22:38.663Z,5.50
2018-01-20T13:25:06.146Z,8.57
2018-01-20T13:27:33.714Z,6.90
2018-01-20T13:30:01.176Z,6.20
2018-01-20T13:32:28.642Z,15.03
2018-01-20T13:34:56.097Z,8.57
2018-01-20T13:37:23.594Z,8.27
2018-01-20T13:39:51.054Z,9.43
2018-01-20T13:42:18.525Z,7.53
2018-01-20T13:44:46.000Z,10.87
2018-01-20T13:47:13.577Z,10.00
2018-01-20T13:49:41.043Z,8.77
2018-01-20T13:52:08.502Z,9.20
2018-01-20T13:54:35.957Z,12.63
2018-01-20T13:57:03.420Z,7.20
2018-01-20T13:59:30.915Z,8.30
2018-01-20T14:01:58.372Z,9.77
2018-01-20T14:04:25.853Z,8.33
2018-01-20T14:06:53.421Z,9.57
2018-01-20T14:09:20.868Z,8.53
2018-01-20T14:11:48.431Z,12.70
2018-01-20T14:14:16.646Z,10.50
2018-01-20T14:16:44.106Z,10.00
2018-01-20T14:19:11.566Z,13.50
2018-01-20T14:21:39.028Z,10.30
2018-01-20T14:24:06.495Z,12.60
2018-01-20T14:26:33.954Z,9.60
2018-01-20T14:29:01.565Z,11.17
2018-01-20T14:31:29.026Z,11.60
2018-01-20T14:33:56.486Z,11.37
2018-01-20T14:36:23.990Z,11.93
2018-01-20T14:38:51.439Z,9.30
2018-01-20T14:41:19.009Z,10.33
2018-01-20T14:43:46.489Z,16.60
2018-01-20T14:46:14.058Z,12.57
2018-01-20T14:48:41.513Z,12.80
2018-01-20T14:51:08.988Z,12.13
2018-01-20T14:53:36.441Z,16.53
2018-01-20T14:56:03.933Z,11.37
2018-01-20T14:58:31.397Z,12.10
2018-01-20T15:00:58.864Z,9.87
2018-01-20T15:03:26.556Z,7.67
2018-01-20T15:05:54.870Z,8.43
2018-01-20T15:08:25.419Z,12.20
2018-01-20T15:10:55.961Z,10.77
2018-01-20T15:13:25.063Z,10.37
2018-01-20T15:18:04.856Z,10.63
2018-01-20T15:20:32.530Z,9.67
2018-01-20T15:23:00.302Z,14.10
2018-01-20T15:25:28.074Z,12.63
2018-01-20T15:27:55.952Z,12.70
2018-01-20T15:30:24.761Z,11.63
2018-01-20T15:32:52.528Z,14.93
2018-01-20T15:35:20.919Z,15.33
2018-01-20T15:37:49.542Z,11.77
2018-01-20T15:40:17.188Z,13.00
2018-01-20T15:42:44.865Z,13.60
2018-01-20T15:45:13.274Z,13.40
2018-01-20T15:47:40.927Z,15.03
2018-01-20T15:50:08.805Z,13.97
2018-01-20T15:52:36.507Z,14.77
2018-01-20T15:55:04.154Z,16.23
2018-01-20T15:57:31.935Z,18.83
2018-01-20T16:00:00.266Z,18.80
2018-01-20T16:02:27.790Z,17.53
2018-01-20T16:04:55.274Z,17.63
2018-01-20T16:07:22.785Z,18.13
2018-01-20T16:09:50.249Z,17.97
2018-01-20T16:12:17.766Z,18.60
2018-01-20T16:14:45.331Z,20.70
2018-01-20T16:17:13.621Z,20.57
2018-01-20T16:19:41.073Z,20.73
2018-01-20T16:22:09.906Z,22.10
2018-01-20T16:24:37.566Z,20.00
2018-01-20T16:27:05.817Z,22.60
2018-01-20T16:29:33.375Z,21.63
2018-01-20T16:32:00.855Z,22.20
2018-01-20T16:34:29.314Z,23.67
2018-01-20T16:36:56.843Z,25.50
2018-01-20T16:39:25.183Z,25.97
2018-01-20T16:41:52.827Z,27.13
2018-01-20T16:44:21.057Z,24.87
2018-01-20T16:46:48.514Z,29.37
2018-01-20T16:49:15.992Z,29.63
2018-01-20T16:51:43.508Z,48.77
2018-01-20T16:54:11.739Z,49.63
2018-01-20T16:56:39.253Z,30.20
2018-01-20T16:59:07.481Z,28.80
2018-01-20T17:01:35.040Z,31.77
2018-01-20T17:04:02.609Z,25.53
2018-01-20T17:06:30.120Z,32.30
2018-01-20T17:08:57.649Z,29.93
2018-01-20T17:11:25.169Z,32.33
2018-01-20T17:13:53.391Z,39.47
2018-01-20T17:16:21.629Z,32.53
2018-01-20T17:18:49.226Z,33.80
2018-01-20T17:21:18.189Z,30.57
2018-01-20T17:23:45.653Z,27.93
2018-01-20T17:26:13.303Z,27.87
2018-01-20T17:28:40.776Z,30.97
2018-01-20T17:31:08.239Z,30.07
2018-01-20T17:33:35.771Z,28.80
2018-01-20T17:36:04.309Z,29.33
2018-01-20T17:38:32.080Z,25.83
2018-01-20T17:40:59.564Z,28.43
2018-01-20T17:43:27.068Z,27.57
2018-01-20T17:45:54.521Z,30.27
2018-01-20T17:48:22.100Z,30.57
2018-01-20T17:50:50.345Z,28.87
2018-01-20T17:53:17.814Z,25.80
2018-01-20T17:55:45.493Z,25.40
2018-01-20T17:58:13.018Z,27.37
2018-01-20T18:00:40.581Z,28.33
2018-01-20T18:03:09.553Z,26.90
2018-01-20T18:05:37.023Z,22.43
2018-01-20T18:08:04.533Z,24.23
2018-01-20T18:10:32.891Z,26.70
2018-01-20T18:13:00.556Z,23.53
2018-01-20T18:15:28.013Z,25.77
2018-01-20T18:17:55.541Z,28.63
2018-01-20T18:20:23.094Z,26.70
2018-01-20T18:22:50.573Z,25.43
2018-01-20T18:25:18.030Z,26.33
2018-01-20T18:27:45.668Z,26.17
2018-01-20T18:30:13.234Z,30.63
2018-01-20T18:32:40.725Z,27.80
2018-01-20T18:35:08.237Z,26.80
2018-01-20T18:37:35.842Z,26.67
2018-01-20T18:40:03.638Z,26.23
2018-01-20T18:42:32.421Z,26.10
2018-01-20T18:45:00.912Z,42.67
2018-01-20T18:47:28.511Z,26.37
2018-01-20T18:49:56.040Z,28.67
2018-01-20T18:52:23.596Z,29.00
2018-01-20T18:54:51.264Z,27.40
2018-01-20T18:57:18.986Z,29.67
2018-01-20T18:59:46.642Z,26.83
2018-01-20T19:02:14.168Z,27.43
2018-01-20T19:04:41.802Z,30.43
2018-01-20T19:07:09.321Z,28.13
2018-01-20T19:09:36.938Z,24.93
2018-01-20T19:12:04.522Z,24.10
2018-01-20T19:14:31.973Z,24.97
2018-01-20T19:16:59.475Z,22.73
2018-01-20T19:19:27.144Z,22.60
2018-01-20T19:21:54.598Z,24.63
2018-01-20T19:24:22.104Z,25.27
2018-01-20T19:26:49.698Z,26.57
2018-01-20T19:29:18.016Z,26.17
2018-01-20T19:31:45.534Z,26.23
2018-01-20T19:34:13.896Z,32.80
2018-01-20T19:36:41.385Z,32.17
2018-01-20T19:39:08.845Z,35.40
2018-01-20T19:41:36.359Z,31.23
2018-01-20T19:44:03.956Z,25.83
2018-01-20T19:46:31.623Z,29.23
2018-01-20T19:48:59.249Z,27.63
2018-01-20T19:51:26.782Z,30.43
2018-01-20T19:53:54.313Z,24.77
2018-01-20T19:56:22.616Z,26.53
2018-01-20T19:58:50.986Z,24.40
2018-01-20T20:01:18.604Z,23.57
2018-01-20T20:03:46.059Z,24.43
2018-01-20T20:06:13.838Z,24.50
2018-01-20T20:08:41.380Z,20.27
2018-01-20T20:11:09.796Z,21.00
2018-01-20T20:13:37.326Z,22.60
2018-01-20T20:16:04.833Z,23.80
2018-01-20T20:18:32.312Z,23.93
2018-01-20T20:20:59.862Z,27.87
2018-01-20T20:23:28.276Z,22.53
2018-01-20T20:25:55.792Z,24.30
2018-01-20T20:28:23.308Z,19.80
2018-01-20T20:30:51.021Z,21.80
2018-01-20T20:33:18.489Z,21.40
2018-01-20T20:35:46.016Z,24.60
2018-01-20T20:38:14.317Z,25.13
2018-01-20T20:40:42.185Z,23.70
2018-01-20T20:43:09.710Z,22.73
2018-01-20T20:45:37.170Z,25.53
2018-01-20T20:48:04.647Z,26.70
2018-01-20T20:50:33.112Z,27.53
2018-01-20T20:53:00.657Z,22.80
2018-01-20T20:55:29.073Z,24.40
2018-01-20T20:57:56.617Z,23.47
2018-01-20T21:00:25.111Z,25.80
2018-01-20T21:02:52.646Z,20.83
2018-01-20T21:05:21.614Z,24.80
2018-01-20T21:07:49.335Z,23.63
2018-01-20T21:10:16.785Z,23.80
2018-01-20T21:12:44.299Z,23.73
2018-01-20T21:15:12.592Z,27.20
2018-01-20T21:17:40.049Z,24.63
2018-01-20T21:20:08.276Z,28.60
2018-01-20T21:22:35.928Z,30.23
2018-01-20T21:25:03.448Z,29.23
2018-01-20T21:27:31.009Z,28.07
2018-01-20T21:29:58.523Z,26.80
2018-01-20T21:32:26.788Z,29.40
2018-01-20T21:34:54.335Z,25.13
2018-01-20T21:37:22.625Z,21.27
2018-01-20T21:39:50.094Z,21.43
2018-01-20T21:42:17.627Z,22.83
2018-01-20T21:44:45.191Z,32.17
2018-01-20T21:47:12.998Z,29.80
2018-01-20T21:49:40.477Z,34.93
2018-01-20T21:52:08.110Z,28.67
2018-01-20T21:54:35.605Z,21.63
2018-01-20T21:57:03.142Z,30.47
2018-01-20T21:59:31.428Z,43.10
2018-01-20T22:01:59.788Z,39.80
2018-01-20T22:04:27.393Z,48.30
2018-01-20T22:06:54.982Z,57.27
2018-01-20T22:09:22.543Z,32.23
2018-01-20T22:11:50.053Z,21.77
2018-01-20T22:14:17.570Z,31.30
2018-01-20T22:16:45.869Z,28.07
2018-01-20T22:19:13.549Z,27.53
2018-01-20T22:21:41.038Z,27.93
2018-01-20T22:24:08.584Z,22.30
2018-01-20T22:26:36.088Z,19.13
2018-01-20T22:29:03.553Z,23.37
2018-01-20T22:31:31.060Z,23.57
2018-01-20T22:34:00.021Z,25.53
2018-01-20T22:39:01.847Z,27.53
2018-01-20T22:41:29.409Z,25.03
2018-01-20T22:43:56.899Z,24.20
2018-01-20T22:46:24.496Z,26.90
2018-01-20T22:48:52.718Z,29.37
2018-01-20T22:51:20.173Z,29.20
2018-01-20T22:53:47.628Z,23.60
2018-01-20T22:56:15.187Z,20.77
2018-01-20T22:58:43.440Z,23.60
2018-01-20T23:01:16.581Z,26.00
2018-01-20T23:03:44.807Z,22.70
2018-01-20T23:06:12.312Z,22.57
2018-01-20T23:08:39.757Z,19.03
2018-01-20T23:11:07.228Z,20.67
2018-01-20T23:13:34.714Z,23.57
2018-01-20T23:16:02.208Z,20.03
2018-01-20T23:18:30.456Z,22.80
2018-01-20T23:20:58.185Z,24.17
2018-01-20T23:23:25.688Z,23.43
2018-01-20T23:25:53.187Z,25.77
2018-01-20T23:28:20.737Z,30.73
2018-01-20T23:30:48.191Z,26.77
2018-01-20T23:33:15.690Z,21.53
2018-01-20T23:35:43.969Z,24.23
2018-01-20T23:38:11.421Z,21.93
2018-01-20T23:40:38.919Z,22.50
2018-01-20T23:43:06.472Z,21.87
2018-01-20T23:45:33.946Z,28.03
2018-01-20T23:48:01.438Z,22.40
2018-01-20T23:50:29.661Z,25.60
2018-01-20T23:52:57.165Z,26.27
2018-01-20T23:55:24.741Z,20.40
2018-01-20T23:57:52.209Z,21.20
